Terminal Aerodrome Forecast
Issued by NWS Jacksonville, FL

Home | Current Version | Previous Version | Text Only | Print | Product List | Glossary On
Versions: 1 2 3 4 5 6 7 8 9 10 11 12 13 14 15 16 17 18 19 20 21 22 23 24 25 26 27 28
000
FTUS42 KJAX 272339
TAFSSI
TAF
KSSI 272339Z 2800/2824 03012G17KT P6SM SCT025 OVC200
     FM280300 02014G19KT P6SM BKN025 OVC250
     FM281200 03015G25KT P6SM VCSH OVC015
     FM281600 03016G24KT 5SM -RA BR FEW004 SCT007 BKN012
      TEMPO 2819/2823 3SM RA SCT004 BKN007=

USA.gov is the U.S. government's official web portal to all federal, state and local government web resources and services.